createdAt,value
2024-04-23T00:03:45.122Z,102284.69
2024-04-23T00:08:47.153Z,102288.25
2024-04-23T00:13:49.191Z,102277.00
2024-04-23T00:18:51.469Z,102276.91
2024-04-23T00:23:53.570Z,102266.78
2024-04-23T00:28:55.607Z,102264.28
2024-04-23T00:33:57.616Z,102261.00
2024-04-23T00:38:59.668Z,102255.91
2024-04-23T00:44:01.738Z,102251.69
2024-04-23T00:49:04.110Z,102256.84
2024-04-23T00:54:07.652Z,102244.88
2024-04-23T00:59:17.916Z,102246.69
2024-04-23T01:04:19.991Z,102243.16
2024-04-23T01:09:22.399Z,102238.09
2024-04-23T01:14:24.469Z,102238.91
2024-04-23T01:19:41.788Z,102234.75
2024-04-23T01:25:01.100Z,102219.34
2024-04-23T01:30:05.530Z,102226.28
2024-04-23T01:35:11.820Z,102214.25
2024-04-23T01:40:14.322Z,102204.81
2024-04-23T01:45:17.506Z,102211.81
2024-04-23T01:50:19.759Z,102206.69
2024-04-23T01:55:21.864Z,102206.63
2024-04-23T02:00:25.157Z,102183.28
2024-04-23T02:05:28.309Z,102197.06
2024-04-23T02:10:30.829Z,102198.97
2024-04-23T02:15:32.810Z,102194.81
2024-04-23T02:20:34.843Z,102193.16
2024-04-23T02:25:36.916Z,102195.75
2024-04-23T02:30:39.156Z,102188.03
2024-04-23T02:35:41.231Z,102185.47
2024-04-23T02:40:43.271Z,102185.44
2024-04-23T02:45:45.396Z,102185.53
2024-04-23T02:50:47.398Z,102182.16
2024-04-23T02:55:49.567Z,102181.34
2024-04-23T03:00:51.705Z,102181.34
2024-04-23T03:05:53.715Z,102191.72
2024-04-23T03:10:55.768Z,102186.59
2024-04-23T03:15:58.230Z,102186.63
2024-04-23T03:21:00.272Z,102176.34
2024-04-23T03:26:02.407Z,102172.00
2024-04-23T03:31:04.697Z,102174.66
2024-04-23T03:36:07.932Z,102178.97
2024-04-23T03:41:09.919Z,102172.97
2024-04-23T03:46:12.024Z,102169.53
2024-04-23T03:51:14.016Z,102166.91
2024-04-23T03:56:16.045Z,102170.41
2024-04-23T04:01:18.075Z,102164.47
2024-04-23T04:06:20.510Z,102166.19
2024-04-23T04:11:22.646Z,102156.69
2024-04-23T04:16:24.844Z,102160.13
2024-04-23T04:21:26.826Z,102158.50
2024-04-23T04:26:28.884Z,102164.53
2024-04-23T04:31:30.932Z,102154.22
2024-04-23T04:36:33.001Z,102157.66
2024-04-23T04:41:35.101Z,102150.78
2024-04-23T04:46:37.262Z,102155.81
2024-04-23T04:51:39.300Z,102154.09
2024-04-23T04:56:41.352Z,102154.97
2024-04-23T05:01:43.377Z,102148.88
2024-04-23T05:06:45.786Z,102154.00
2024-04-23T05:11:48.000Z,102155.63
2024-04-23T05:16:50.031Z,102146.84
2024-04-23T05:21:52.102Z,102144.19
2024-04-23T05:26:54.104Z,102148.34
2024-04-23T05:32:14.992Z,102156.91
2024-04-23T05:37:17.010Z,102152.38
2024-04-23T05:42:19.876Z,102152.94
2024-04-23T05:47:22.099Z,102149.91
2024-04-23T05:53:20.738Z,102150.28
2024-04-23T05:58:22.825Z,102147.97
2024-04-23T06:03:24.843Z,102152.97
2024-04-23T06:08:27.615Z,102156.84
2024-04-23T06:13:29.761Z,102167.91
2024-04-23T06:18:31.847Z,102160.06
2024-04-23T06:23:34.047Z,102158.25
2024-04-23T06:28:36.788Z,102148.44
2024-04-23T06:33:39.095Z,102157.09
2024-04-23T06:38:41.189Z,102154.44
2024-04-23T06:43:43.257Z,102165.91
2024-04-23T06:48:45.415Z,102152.56
2024-04-23T06:53:47.447Z,102148.25
2024-04-23T06:58:49.486Z,102142.34
2024-04-23T07:03:51.597Z,102139.03
2024-04-23T07:08:56.368Z,102141.13
2024-04-23T07:13:58.668Z,102127.28
2024-04-23T07:19:02.440Z,102118.94
2024-04-23T07:24:04.960Z,102122.88
2024-04-23T07:29:07.765Z,102114.97
2024-04-23T07:34:09.876Z,102107.81
2024-04-23T07:39:14.339Z,102117.56
2024-04-23T07:44:17.532Z,102103.44
2024-04-23T07:49:19.561Z,102104.56
2024-04-23T07:54:21.632Z,102099.88
2024-04-23T07:59:23.730Z,102089.03
2024-04-23T08:04:25.744Z,102092.91
2024-04-23T08:09:27.760Z,102089.19
2024-04-23T08:14:29.791Z,102086.28
2024-04-23T08:19:31.858Z,102072.75
2024-04-23T08:24:33.934Z,102075.25
2024-04-23T08:29:36.007Z,102068.31
2024-04-23T08:34:38.304Z,102073.56
2024-04-23T08:39:40.317Z,102070.53
2024-04-23T08:44:44.609Z,102060.13
2024-04-23T08:49:48.054Z,102054.06
2024-04-23T08:54:50.142Z,102039.13
2024-04-23T08:59:52.583Z,102039.63
2024-04-23T09:04:59.312Z,102036.25
2024-04-23T09:10:04.261Z,102030.75
2024-04-23T09:15:07.456Z,102022.56
2024-04-23T09:20:13.551Z,102029.06
2024-04-23T09:25:16.354Z,102018.19
2024-04-23T09:30:31.206Z,102023.44
2024-04-23T09:35:33.338Z,102017.56
2024-04-23T09:40:40.672Z,102007.53
2024-04-23T09:45:43.469Z,102005.97
2024-04-23T09:50:45.941Z,102000.47
2024-04-23T09:56:03.697Z,101995.59
2024-04-23T10:01:07.216Z,101994.31
2024-04-23T10:06:19.139Z,101978.88
2024-04-23T10:11:32.018Z,101973.94
2024-04-23T10:16:45.978Z,101963.50
2024-04-23T10:21:48.241Z,101961.28
2024-04-23T10:26:50.879Z,101950.19
2024-04-23T10:31:53.082Z,101946.91
2024-04-23T10:36:56.370Z,101942.16
2024-04-23T10:42:00.809Z,101941.38
2024-04-23T10:47:03.619Z,101934.63
2024-04-23T10:52:06.674Z,101939.13
2024-04-23T10:57:09.103Z,101930.75
2024-04-23T11:02:13.280Z,101928.94
2024-04-23T11:07:27.100Z,101914.13
2024-04-23T11:12:33.035Z,101904.19
2024-04-23T11:17:42.094Z,101893.50
2024-04-23T11:22:54.719Z,101893.41
2024-04-23T11:27:57.068Z,101888.00
2024-04-23T11:32:59.233Z,101885.69
2024-04-23T11:38:01.320Z,101884.16
2024-04-23T11:43:03.479Z,101883.81
2024-04-23T11:48:06.011Z,101872.78
2024-04-23T11:53:08.642Z,101859.09
2024-04-23T11:58:10.715Z,101851.69
2024-04-23T12:03:12.761Z,101849.59
2024-04-23T12:08:18.153Z,101845.03
2024-04-23T12:13:21.061Z,101851.38
2024-04-23T12:18:23.242Z,101831.38
2024-04-23T12:23:25.671Z,101828.28
2024-04-23T12:28:27.730Z,101831.22
2024-04-23T12:33:30.229Z,101830.88
2024-04-23T12:38:49.141Z,101815.69
2024-04-23T12:43:53.583Z,101812.53
2024-04-23T12:48:57.683Z,101789.16
2024-04-23T12:54:10.640Z,101791.66
2024-04-23T12:59:16.793Z,101792.16
2024-04-23T13:04:21.437Z,101777.03
2024-04-23T13:09:26.513Z,101770.59
2024-04-23T13:14:32.879Z,101764.69
2024-04-23T13:19:37.589Z,101754.84
2024-04-23T13:24:44.562Z,101739.00
2024-04-23T13:29:50.114Z,101730.16
2024-04-23T13:34:53.748Z,101731.78
2024-04-23T13:40:07.729Z,101716.94
2024-04-23T13:45:10.486Z,101712.00
2024-04-23T13:50:13.299Z,101708.50
2024-04-23T13:55:16.729Z,101702.41
2024-04-23T14:00:21.249Z,101692.72
2024-04-23T14:05:26.030Z,101692.22
2024-04-23T14:10:33.379Z,101688.03
2024-04-23T14:15:38.986Z,101665.59
2024-04-23T14:20:44.974Z,101658.38
2024-04-23T14:25:47.685Z,101652.53
2024-04-23T14:30:51.084Z,101654.78
2024-04-23T14:35:59.932Z,101641.47
2024-04-23T14:41:07.493Z,101636.19
2024-04-23T14:46:15.867Z,101635.88
2024-04-23T14:51:21.126Z,101619.72
2024-04-23T14:56:27.244Z,101614.81
2024-04-23T15:01:37.473Z,101615.34
2024-04-23T15:06:48.287Z,101592.69
2024-04-23T15:11:54.892Z,101581.91
2024-04-23T15:17:12.270Z,101580.25
2024-04-23T15:22:17.993Z,101575.81
2024-04-23T15:27:23.502Z,101582.56
2024-04-23T15:32:31.120Z,101578.13
2024-04-23T15:37:34.658Z,101575.06
2024-04-23T15:42:43.691Z,101562.84
2024-04-23T15:47:55.807Z,101564.31
2024-04-23T15:53:00.377Z,101564.25
2024-04-23T15:58:05.127Z,101557.88
2024-04-23T16:03:07.619Z,101554.31
2024-04-23T16:08:10.135Z,101550.16
2024-04-23T16:13:12.771Z,101541.81
2024-04-23T16:18:16.061Z,101534.91
2024-04-23T16:23:18.254Z,101541.38
2024-04-23T16:28:21.228Z,101543.63
2024-04-23T16:33:28.641Z,101560.31
2024-04-23T16:38:31.107Z,101558.31
2024-04-23T16:43:33.385Z,101539.50
2024-04-23T16:48:36.444Z,101542.63
2024-04-23T16:53:39.965Z,101536.22
2024-04-23T16:58:42.141Z,101545.72
2024-04-23T17:03:46.009Z,101542.69
2024-04-23T17:08:48.211Z,101538.06
2024-04-23T17:13:50.355Z,101530.31
2024-04-23T17:18:52.470Z,101526.97
2024-04-23T17:23:55.445Z,101527.72
2024-04-23T17:29:01.312Z,101522.88
2024-04-23T17:34:03.561Z,101516.94
2024-04-23T17:39:05.720Z,101511.69
2024-04-23T17:44:08.061Z,101497.53
2024-04-23T17:49:11.413Z,101489.53
2024-04-23T17:54:13.485Z,101476.06
2024-04-23T17:59:15.514Z,101455.63
2024-04-23T18:04:17.566Z,101446.56
2024-04-23T18:09:19.698Z,101437.75
2024-04-23T18:14:21.818Z,101440.38
2024-04-23T18:19:23.989Z,101424.06
2024-04-23T18:24:26.005Z,101425.16
2024-04-23T18:29:28.298Z,101421.09
2024-04-23T18:34:30.810Z,101417.06
2024-04-23T18:39:32.953Z,101417.19
2024-04-23T18:44:36.357Z,101409.25
2024-04-23T18:49:38.361Z,101406.84
2024-04-23T18:54:42.977Z,101404.41
2024-04-23T18:59:46.636Z,101417.44
2024-04-23T19:04:48.622Z,101411.94
2024-04-23T19:09:51.514Z,101414.31
2024-04-23T19:14:53.669Z,101393.72
2024-04-23T19:19:58.181Z,101386.16
2024-04-23T19:25:01.892Z,101403.88
2024-04-23T19:30:04.670Z,101400.41
2024-04-23T19:35:07.374Z,101401.13
2024-04-23T19:40:13.473Z,101388.06
2024-04-23T19:45:15.673Z,101398.09
2024-04-23T19:50:17.885Z,101402.25
2024-04-23T19:55:21.444Z,101391.22
2024-04-23T20:00:27.445Z,101403.00
2024-04-23T20:05:29.710Z,101389.81
2024-04-23T20:10:33.638Z,101382.72
2024-04-23T20:15:35.772Z,101372.47
2024-04-23T20:20:38.044Z,101365.25
2024-04-23T20:25:47.426Z,101364.72
2024-04-23T20:30:49.706Z,101361.50
2024-04-23T20:35:51.820Z,101353.88
2024-04-23T20:40:55.596Z,101363.50
2024-04-23T20:45:57.772Z,101364.22
2024-04-23T20:51:00.206Z,101369.78
2024-04-23T20:56:09.313Z,101363.44
2024-04-23T21:01:14.643Z,101362.78
2024-04-23T21:06:16.884Z,101355.94
2024-04-23T21:11:19.558Z,101360.41
2024-04-23T21:16:25.025Z,101361.53
2024-04-23T21:21:27.407Z,101366.28
2024-04-23T21:26:29.844Z,101358.09
2024-04-23T21:31:35.510Z,101362.75
2024-04-23T21:36:39.493Z,101357.53
2024-04-23T21:41:44.846Z,101357.03
2024-04-23T21:46:48.357Z,101364.38
2024-04-23T21:52:15.845Z,101356.91
2024-04-23T21:57:18.634Z,101364.06
2024-04-23T22:02:23.731Z,101359.31
2024-04-23T22:07:25.841Z,101363.91
2024-04-23T22:12:27.902Z,101367.09
2024-04-23T22:17:32.513Z,101347.44
2024-04-23T22:22:35.127Z,101341.53
2024-04-23T22:27:41.587Z,101330.66
2024-04-23T22:32:43.692Z,101325.72
2024-04-23T22:37:47.618Z,101322.75
2024-04-23T22:42:49.754Z,101315.16
2024-04-23T22:47:51.798Z,101320.22
2024-04-23T22:52:53.843Z,101320.69
2024-04-23T22:57:55.874Z,101321.41
2024-04-23T23:02:57.916Z,101310.91
2024-04-23T23:07:59.987Z,101306.53
2024-04-23T23:13:01.974Z,101296.09
2024-04-23T23:18:04.337Z,101299.75
2024-04-23T23:23:06.358Z,101291.00
2024-04-23T23:28:09.559Z,101285.47
2024-04-23T23:33:11.919Z,101269.81
2024-04-23T23:38:14.054Z,101257.84
2024-04-23T23:43:16.468Z,101256.09
2024-04-23T23:48:18.684Z,101245.66
2024-04-23T23:53:20.766Z,101231.56
2024-04-23T23:58:22.842Z,101229.34
